createdAt,value
2019-04-06T00:00:57.095Z,62.30
2019-04-06T00:01:57.089Z,62.30
2019-04-06T00:02:57.070Z,62.50
2019-04-06T00:03:57.096Z,59.50
2019-04-06T00:04:57.048Z,61.60
2019-04-06T00:05:57.034Z,58.00
2019-04-06T00:06:57.028Z,57.00
2019-04-06T00:07:57.014Z,57.00
2019-04-06T00:08:57.002Z,54.70
2019-04-06T00:09:56.996Z,51.70
2019-04-06T00:10:57.069Z,57.10
2019-04-06T00:11:56.966Z,52.30
2019-04-06T00:12:56.987Z,49.80
2019-04-06T00:13:56.952Z,56.00
2019-04-06T00:14:57.035Z,49.50
2019-04-06T00:15:56.926Z,52.60
2019-04-06T00:16:56.942Z,51.70
2019-04-06T00:17:56.903Z,51.50
2019-04-06T00:18:56.886Z,49.00
2019-04-06T00:19:56.874Z,50.60
2019-04-06T00:20:56.880Z,47.20
2019-04-06T00:21:56.852Z,46.50
2019-04-06T00:22:56.839Z,52.90
2019-04-06T00:23:56.858Z,47.50
2019-04-06T00:24:56.818Z,46.50
2019-04-06T00:25:56.808Z,47.60
2019-04-06T00:26:56.795Z,48.10
2019-04-06T00:27:56.794Z,47.70
2019-04-06T00:28:56.809Z,45.90
2019-04-06T00:29:56.772Z,46.50
2019-04-06T00:30:56.745Z,45.40
2019-04-06T00:31:56.754Z,43.50
2019-04-06T00:32:56.802Z,41.90
2019-04-06T00:33:56.716Z,43.00
2019-04-06T00:34:56.700Z,45.40
2019-04-06T00:35:56.692Z,41.40
2019-04-06T00:36:56.701Z,45.20
2019-04-06T00:37:56.673Z,39.10
2019-04-06T00:38:56.747Z,43.20
2019-04-06T00:39:56.701Z,41.30
2019-04-06T00:40:56.642Z,41.30
2019-04-06T00:41:56.623Z,40.90
2019-04-06T00:42:56.619Z,40.60
2019-04-06T00:43:56.596Z,44.00
2019-04-06T00:44:56.590Z,41.70
2019-04-06T00:45:56.582Z,38.40
2019-04-06T00:46:56.563Z,43.50
2019-04-06T00:47:56.571Z,36.70
2019-04-06T00:48:56.544Z,39.90
2019-04-06T00:49:56.607Z,38.30
2019-04-06T00:50:56.519Z,38.00
2019-04-06T00:51:56.513Z,38.10
2019-04-06T00:52:56.513Z,36.70
2019-04-06T00:53:56.488Z,39.70
2019-04-06T00:54:56.481Z,35.80
2019-04-06T00:55:56.541Z,38.40
2019-04-06T00:56:56.454Z,38.60
2019-04-06T00:57:56.437Z,38.50
2019-04-06T00:58:56.495Z,39.80
2019-04-06T00:59:56.414Z,36.90
2019-04-06T01:00:56.406Z,37.10
2019-04-06T01:01:56.433Z,40.50
2019-04-06T01:02:56.389Z,36.50
2019-04-06T01:03:56.391Z,34.60
2019-04-06T01:04:56.372Z,34.90
2019-04-06T01:05:56.366Z,37.10
2019-04-06T01:06:56.339Z,37.30
2019-04-06T01:07:56.328Z,36.60
2019-04-06T01:08:56.370Z,37.60
2019-04-06T01:09:56.305Z,39.80
2019-04-06T01:10:56.291Z,36.40
2019-04-06T01:11:56.279Z,36.30
2019-04-06T01:12:56.269Z,38.60
2019-04-06T01:13:56.259Z,33.90
2019-04-06T01:14:56.271Z,36.70
2019-04-06T01:15:56.247Z,34.60
2019-04-06T01:16:56.227Z,37.00
2019-04-06T01:17:56.237Z,36.00
2019-04-06T01:18:56.202Z,36.00
2019-04-06T01:19:56.203Z,38.10
2019-04-06T01:20:56.178Z,35.70
2019-04-06T01:21:56.307Z,37.20
2019-04-06T01:22:56.155Z,34.90
2019-04-06T01:23:56.157Z,31.00
2019-04-06T01:24:56.136Z,37.80
2019-04-06T01:26:06.552Z,33.60
2019-04-06T01:26:57.125Z,34.30
2019-04-06T01:27:56.108Z,34.70
2019-04-06T01:28:56.083Z,31.90
2019-04-06T01:29:56.076Z,37.60
2019-04-06T01:30:56.068Z,36.40
2019-04-06T01:31:56.048Z,35.80
2019-04-06T01:32:56.051Z,32.30
2019-04-06T01:33:56.026Z,33.00
2019-04-06T01:34:56.075Z,35.30
2019-04-06T01:35:56.008Z,33.80
2019-04-06T01:36:55.996Z,36.50
2019-04-06T01:37:56.019Z,34.90
2019-04-06T01:38:55.978Z,37.20
2019-04-06T01:39:55.973Z,38.20
2019-04-06T01:40:55.949Z,35.80
2019-04-06T01:41:55.942Z,34.60
2019-04-06T01:42:55.925Z,34.40
2019-04-06T01:43:55.924Z,35.30
2019-04-06T01:44:55.906Z,35.10
2019-04-06T01:45:55.897Z,33.50
2019-04-06T01:46:55.881Z,34.10
2019-04-06T01:47:55.876Z,36.70
2019-04-06T01:48:55.879Z,35.00
2019-04-06T01:49:55.855Z,34.70
2019-04-06T01:50:55.839Z,35.90
2019-04-06T01:51:55.832Z,36.00
2019-04-06T01:52:55.824Z,36.20
2019-04-06T01:53:55.816Z,38.10
2019-04-06T01:54:55.801Z,35.90
2019-04-06T01:55:55.798Z,39.00
2019-04-06T01:56:55.772Z,37.40
2019-04-06T01:57:55.769Z,35.20
2019-04-06T01:58:55.763Z,35.10
2019-04-06T01:59:55.747Z,36.00
2019-04-06T02:00:55.739Z,36.60
2019-04-06T02:01:55.915Z,36.30
2019-04-06T02:02:55.748Z,42.20
2019-04-06T02:03:55.711Z,37.30
2019-04-06T02:04:55.707Z,39.10
2019-04-06T02:05:55.678Z,38.60
2019-04-06T02:06:55.664Z,41.70
2019-04-06T02:07:55.659Z,41.10
2019-04-06T02:08:55.653Z,40.70
2019-04-06T02:09:55.637Z,40.90
2019-04-06T02:10:55.636Z,41.70
2019-04-06T02:11:55.611Z,40.30
2019-04-06T02:12:55.603Z,41.20
2019-04-06T02:13:55.586Z,43.80
2019-04-06T02:14:55.584Z,40.60
2019-04-06T02:15:55.640Z,44.50
2019-04-06T02:16:55.552Z,45.20
2019-04-06T02:17:55.543Z,44.30
2019-04-06T02:18:55.530Z,45.10
2019-04-06T02:19:55.564Z,48.10
2019-04-06T02:20:55.506Z,43.40
2019-04-06T02:21:55.502Z,44.40
2019-04-06T02:22:55.490Z,43.20
2019-04-06T02:23:55.479Z,43.20
2019-04-06T02:24:55.468Z,46.50
2019-04-06T02:25:55.464Z,45.80
2019-04-06T02:26:55.452Z,43.80
2019-04-06T02:27:55.427Z,41.30
2019-04-06T02:28:55.431Z,46.90
2019-04-06T02:29:55.407Z,46.30
2019-04-06T02:30:55.416Z,43.10
2019-04-06T02:31:55.392Z,42.50
2019-04-06T02:32:55.377Z,42.90
2019-04-06T02:33:55.367Z,39.90
2019-04-06T02:34:55.354Z,43.60
2019-04-06T02:35:55.407Z,41.20
2019-04-06T02:36:55.368Z,42.80
2019-04-06T02:37:55.318Z,43.30
2019-04-06T02:38:55.306Z,43.30
2019-04-06T02:39:55.328Z,42.20
2019-04-06T02:40:55.373Z,42.00
2019-04-06T02:41:55.289Z,45.60
2019-04-06T02:42:55.280Z,44.30
2019-04-06T02:43:55.258Z,44.20
2019-04-06T02:44:55.241Z,46.30
2019-04-06T02:45:55.231Z,45.00
2019-04-06T02:46:55.218Z,42.70
2019-04-06T02:47:55.217Z,43.90
2019-04-06T02:48:55.196Z,45.90
2019-04-06T02:49:55.190Z,45.30
2019-04-06T02:50:55.447Z,47.30
2019-04-06T02:51:55.168Z,43.40
2019-04-06T02:52:55.182Z,43.80
2019-04-06T02:53:55.149Z,43.60
2019-04-06T02:54:55.171Z,45.50
2019-04-06T02:55:55.118Z,43.00
2019-04-06T02:56:55.114Z,40.70
2019-04-06T02:57:55.200Z,40.90
2019-04-06T02:58:55.085Z,40.20
2019-04-06T02:59:55.082Z,44.90
2019-04-06T03:00:55.061Z,41.30
2019-04-06T03:01:55.120Z,46.20
2019-04-06T03:02:55.047Z,39.10
2019-04-06T03:03:55.074Z,40.10
2019-04-06T03:04:55.023Z,38.20
2019-04-06T03:05:55.015Z,40.90
2019-04-06T03:06:55.002Z,42.00
2019-04-06T03:07:55.027Z,40.90
2019-04-06T03:08:54.983Z,41.90
2019-04-06T03:09:54.971Z,40.60
2019-04-06T03:10:54.952Z,39.00
2019-04-06T03:11:55.067Z,40.60
2019-04-06T03:12:54.939Z,43.40
2019-04-06T03:13:54.920Z,41.40
2019-04-06T03:14:54.927Z,44.50
2019-04-06T03:15:54.916Z,43.60
2019-04-06T03:16:54.886Z,42.90
2019-04-06T03:17:54.874Z,42.40
2019-04-06T03:18:54.864Z,40.20
2019-04-06T03:19:54.860Z,43.00
2019-04-06T03:20:54.844Z,43.70
2019-04-06T03:21:54.834Z,41.50
2019-04-06T03:22:54.821Z,45.40
2019-04-06T03:23:54.820Z,43.50
2019-04-06T03:24:54.812Z,45.70
2019-04-06T03:25:54.801Z,44.20
2019-04-06T03:27:01.775Z,43.80
2019-04-06T03:27:55.769Z,45.20
2019-04-06T03:28:54.755Z,45.20
2019-04-06T03:29:58.522Z,41.50
2019-04-06T03:30:54.839Z,42.10
2019-04-06T03:31:54.761Z,40.90
2019-04-06T03:32:54.716Z,41.80
2019-04-06T03:33:54.727Z,46.10
2019-04-06T03:34:54.697Z,41.20
2019-04-06T03:35:54.696Z,43.50
2019-04-06T03:36:54.670Z,43.50
2019-04-06T03:37:54.655Z,43.10
2019-04-06T03:38:54.698Z,44.40
2019-04-06T03:39:54.636Z,45.50
2019-04-06T03:40:54.646Z,47.40
2019-04-06T03:41:54.613Z,47.20
2019-04-06T03:42:54.603Z,43.10
2019-04-06T03:43:54.590Z,48.60
2019-04-06T03:44:54.577Z,46.90
2019-04-06T03:45:54.627Z,43.80
2019-04-06T03:46:54.579Z,44.30
2019-04-06T03:47:54.767Z,43.60
2019-04-06T03:48:54.541Z,42.80
2019-04-06T03:49:54.532Z,46.80
2019-04-06T03:50:54.514Z,44.50
2019-04-06T03:51:54.514Z,46.50
2019-04-06T03:52:54.486Z,47.50
2019-04-06T03:53:54.475Z,41.10
2019-04-06T03:54:54.487Z,45.80
2019-04-06T03:55:54.457Z,44.90
2019-04-06T03:56:54.472Z,43.40
2019-04-06T03:57:54.435Z,44.10
2019-04-06T03:58:54.424Z,45.60
2019-04-06T03:59:54.409Z,43.40
2019-04-06T04:00:54.481Z,46.30
2019-04-06T04:01:54.396Z,49.20
2019-04-06T04:02:54.388Z,44.50
2019-04-06T04:03:54.600Z,47.80
2019-04-06T04:04:54.359Z,45.70
2019-04-06T04:05:54.355Z,45.60
2019-04-06T04:06:54.336Z,44.70
2019-04-06T04:07:54.406Z,43.00
2019-04-06T04:08:54.309Z,42.80
2019-04-06T04:09:54.306Z,45.80
2019-04-06T04:10:54.292Z,44.00
2019-04-06T04:11:54.284Z,43.90
2019-04-06T04:12:54.335Z,46.00
2019-04-06T04:13:54.257Z,44.30
2019-04-06T04:14:54.253Z,46.50
2019-04-06T04:15:56.766Z,45.80
2019-04-06T04:16:54.228Z,41.70
2019-04-06T04:17:54.229Z,44.80
2019-04-06T04:18:54.262Z,42.30
2019-04-06T04:19:54.290Z,43.90
2019-04-06T04:20:54.183Z,42.20
2019-04-06T04:21:54.169Z,42.90
2019-04-06T04:22:54.257Z,45.30
2019-04-06T04:23:54.161Z,43.20
2019-04-06T04:24:54.134Z,43.40
2019-04-06T04:25:54.286Z,43.90
2019-04-06T04:26:54.118Z,41.50
2019-04-06T04:27:54.136Z,44.30
2019-04-06T04:28:54.126Z,41.40
2019-04-06T04:29:54.080Z,43.30
2019-04-06T04:30:54.205Z,43.20
2019-04-06T04:31:54.055Z,40.80
2019-04-06T04:32:54.053Z,44.50
2019-04-06T04:33:54.032Z,41.50
2019-04-06T04:34:54.032Z,42.80
2019-04-06T04:35:54.013Z,39.50
2019-04-06T04:36:54.008Z,42.30
2019-04-06T04:37:54.030Z,45.10
2019-04-06T04:38:54.024Z,41.90
2019-04-06T04:39:53.976Z,41.70
2019-04-06T04:40:53.999Z,41.20
2019-04-06T04:41:53.947Z,43.80
2019-04-06T04:42:53.934Z,43.30
2019-04-06T04:43:53.975Z,42.20
2019-04-06T04:44:53.916Z,43.20
2019-04-06T04:45:53.943Z,41.10
2019-04-06T04:46:53.906Z,39.40
2019-04-06T04:47:53.881Z,39.60
2019-04-06T04:48:53.972Z,38.60
2019-04-06T04:49:53.861Z,40.90
2019-04-06T04:50:53.850Z,42.90
2019-04-06T04:51:53.850Z,42.20
2019-04-06T04:52:53.819Z,42.70
2019-04-06T04:53:53.852Z,39.70
2019-04-06T04:54:53.804Z,44.00
2019-04-06T04:55:53.811Z,40.30
2019-04-06T04:56:53.778Z,41.70
2019-04-06T04:57:53.764Z,39.70
2019-04-06T04:58:53.755Z,42.70
2019-04-06T04:59:53.749Z,44.00
2019-04-06T05:00:53.736Z,42.70
2019-04-06T05:01:53.750Z,43.00
2019-04-06T05:02:53.715Z,47.00
2019-04-06T05:03:53.703Z,42.80
2019-04-06T05:04:53.692Z,40.90
2019-04-06T05:05:53.674Z,45.20
2019-04-06T05:06:53.678Z,42.90
2019-04-06T05:07:53.812Z,42.50
2019-04-06T05:08:53.683Z,42.50
2019-04-06T05:09:53.637Z,42.30
2019-04-06T05:10:53.619Z,43.30
2019-04-06T05:11:53.901Z,40.00
2019-04-06T05:12:53.636Z,42.20
2019-04-06T05:13:53.587Z,41.50
2019-04-06T05:14:53.580Z,40.00
2019-04-06T05:15:53.624Z,41.00
2019-04-06T05:16:53.561Z,43.40
2019-04-06T05:17:53.583Z,44.10
2019-04-06T05:18:53.539Z,51.30
2019-04-06T05:19:53.524Z,40.00
2019-04-06T05:20:53.518Z,41.70
2019-04-06T05:21:53.507Z,41.60
2019-04-06T05:22:53.602Z,44.30
2019-04-06T05:23:53.480Z,44.50
2019-04-06T05:24:53.467Z,41.80
2019-04-06T05:25:53.458Z,40.90
2019-04-06T05:26:53.693Z,40.90
2019-04-06T05:27:53.504Z,38.10
2019-04-06T05:28:53.426Z,39.20
2019-04-06T05:29:53.412Z,45.10
2019-04-06T05:30:53.401Z,37.70
2019-04-06T05:31:53.399Z,41.20
2019-04-06T05:32:53.379Z,43.10
2019-04-06T05:33:53.374Z,38.60
2019-04-06T05:34:53.394Z,38.50
2019-04-06T05:35:53.345Z,40.20
2019-04-06T05:36:53.331Z,39.00
2019-04-06T05:37:53.397Z,40.40
2019-04-06T05:38:53.323Z,35.90
2019-04-06T05:39:53.327Z,36.70
2019-04-06T05:40:53.290Z,38.10
2019-04-06T05:41:53.278Z,37.00
2019-04-06T05:42:53.275Z,42.60
2019-04-06T05:43:53.265Z,40.40
2019-04-06T05:44:53.246Z,38.20
2019-04-06T05:45:53.229Z,38.90
2019-04-06T05:46:53.226Z,40.50
2019-04-06T05:47:53.205Z,38.90
2019-04-06T05:48:53.229Z,39.20
2019-04-06T05:49:53.189Z,38.90
2019-04-06T05:50:53.179Z,40.90
2019-04-06T05:51:53.161Z,37.60
2019-04-06T05:52:53.167Z,36.90
2019-04-06T05:53:53.144Z,36.00
2019-04-06T05:54:53.155Z,37.00
2019-04-06T05:55:53.133Z,40.50
2019-04-06T05:56:53.108Z,40.60
2019-04-06T05:58:02.804Z,38.80
2019-04-06T05:58:54.086Z,37.10
2019-04-06T05:59:53.075Z,36.50
2019-04-06T06:00:53.073Z,37.50
2019-04-06T06:01:53.060Z,40.10
2019-04-06T06:02:53.037Z,34.30
2019-04-06T06:03:53.126Z,41.50
2019-04-06T06:04:53.017Z,39.70
2019-04-06T06:05:53.033Z,39.10
2019-04-06T06:06:53.009Z,38.40
2019-04-06T06:07:52.985Z,39.10
2019-04-06T06:08:53.057Z,40.30
2019-04-06T06:09:52.964Z,38.20
2019-04-06T06:10:52.953Z,40.20
2019-04-06T06:11:55.407Z,37.10
2019-04-06T06:12:52.925Z,36.90
2019-04-06T06:13:52.913Z,38.90
2019-04-06T06:14:52.911Z,36.40
2019-04-06T06:15:53.058Z,39.70
2019-04-06T06:16:52.894Z,38.50
2019-04-06T06:17:52.896Z,35.70
2019-04-06T06:18:52.861Z,37.70
2019-04-06T06:19:52.854Z,38.70
2019-04-06T06:20:52.844Z,37.00
2019-04-06T06:21:52.911Z,37.40
2019-04-06T06:22:52.829Z,37.60
2019-04-06T06:23:52.804Z,35.40
2019-04-06T06:24:52.863Z,38.20
2019-04-06T06:25:52.786Z,35.40
2019-04-06T06:26:52.812Z,37.60
2019-04-06T06:27:52.770Z,39.40
2019-04-06T06:28:52.767Z,37.60
2019-04-06T06:29:52.748Z,39.50
2019-04-06T06:30:52.725Z,36.80
2019-04-06T06:31:52.715Z,37.00
2019-04-06T06:32:52.739Z,35.20
2019-04-06T06:33:52.697Z,35.90
2019-04-06T06:34:52.690Z,39.20
2019-04-06T06:35:52.673Z,38.10
2019-04-06T06:36:52.658Z,38.70
2019-04-06T06:37:52.657Z,36.10
2019-04-06T06:38:52.650Z,40.10
2019-04-06T06:39:52.637Z,38.70
2019-04-06T06:40:52.619Z,35.50
2019-04-06T06:41:52.606Z,38.30
2019-04-06T06:42:52.642Z,40.40
2019-04-06T06:43:52.584Z,39.50
2019-04-06T06:44:52.577Z,39.90
2019-04-06T06:45:52.555Z,38.30
2019-04-06T06:46:52.546Z,37.20
2019-04-06T06:47:52.548Z,38.60
2019-04-06T06:48:52.526Z,35.70
2019-04-06T06:49:52.533Z,39.00
2019-04-06T06:50:52.511Z,39.70
2019-04-06T06:51:52.496Z,38.20
2019-04-06T06:52:52.568Z,38.10
2019-04-06T06:53:52.472Z,37.40
2019-04-06T06:54:52.462Z,37.60
2019-04-06T06:55:53.488Z,38.10
2019-04-06T06:56:52.461Z,40.20
2019-04-06T06:57:52.462Z,38.20
2019-04-06T06:58:52.418Z,37.60
2019-04-06T06:59:52.400Z,38.30
2019-04-06T07:00:52.387Z,38.50
2019-04-06T07:01:52.385Z,34.30
2019-04-06T07:02:52.380Z,37.60
2019-04-06T07:03:52.363Z,36.30
2019-04-06T07:04:52.375Z,38.70
2019-04-06T07:05:52.351Z,39.60
2019-04-06T07:06:52.323Z,34.60
2019-04-06T07:07:52.316Z,40.60
2019-04-06T07:08:52.433Z,38.90
2019-04-06T07:09:52.290Z,34.30
2019-04-06T07:10:52.291Z,38.20
2019-04-06T07:11:52.271Z,38.90
2019-04-06T07:12:52.257Z,39.90
2019-04-06T07:13:52.449Z,40.20
2019-04-06T07:14:52.232Z,37.60
2019-04-06T07:15:52.232Z,40.70
2019-04-06T07:16:52.279Z,37.00
2019-04-06T07:17:52.204Z,40.30
2019-04-06T07:18:52.191Z,37.20
2019-04-06T07:19:52.189Z,40.60
2019-04-06T07:20:52.175Z,37.40
2019-04-06T07:21:52.209Z,39.00
2019-04-06T07:22:52.145Z,36.50
2019-04-06T07:23:52.138Z,41.30
2019-04-06T07:24:52.133Z,37.20
2019-04-06T07:25:58.752Z,36.60
2019-04-06T07:26:53.178Z,37.40
2019-04-06T07:27:52.327Z,37.80
2019-04-06T07:28:52.077Z,42.70
2019-04-06T07:29:52.068Z,39.10
2019-04-06T07:30:52.064Z,37.00
2019-04-06T07:31:52.045Z,38.70
2019-04-06T07:32:52.036Z,37.50
2019-04-06T07:33:52.019Z,45.90
2019-04-06T07:34:52.006Z,37.30
2019-04-06T07:35:52.016Z,36.40
2019-04-06T07:36:52.198Z,37.40
2019-04-06T07:37:52.054Z,40.50
2019-04-06T07:38:51.980Z,43.00
2019-04-06T07:39:52.177Z,40.50
2019-04-06T07:40:51.953Z,40.80
2019-04-06T07:41:51.932Z,39.30
2019-04-06T07:42:52.084Z,40.30
2019-04-06T07:43:51.907Z,35.90
2019-04-06T07:44:52.052Z,41.90
2019-04-06T07:45:52.069Z,36.20
2019-04-06T07:46:51.963Z,46.60
2019-04-06T07:47:51.866Z,39.10
2019-04-06T07:48:51.860Z,37.60
2019-04-06T07:49:51.893Z,41.20
2019-04-06T07:50:51.854Z,41.20
2019-04-06T07:51:51.840Z,40.70
2019-04-06T07:52:51.828Z,38.30
2019-04-06T07:53:51.804Z,35.30
2019-04-06T07:54:51.901Z,39.30
2019-04-06T07:55:51.802Z,37.10
2019-04-06T07:56:51.776Z,39.80
2019-04-06T07:57:51.766Z,37.60
2019-04-06T07:58:51.764Z,39.00
2019-04-06T07:59:51.745Z,39.40
2019-04-06T08:00:51.725Z,38.70
2019-04-06T08:01:51.798Z,37.00
2019-04-06T08:02:51.754Z,37.10
2019-04-06T08:03:51.712Z,36.70
2019-04-06T08:04:51.686Z,42.80
2019-04-06T08:05:51.680Z,42.00
2019-04-06T08:06:51.673Z,37.70
2019-04-06T08:07:51.937Z,38.30
2019-04-06T08:08:51.637Z,36.40
2019-04-06T08:09:51.628Z,42.30
2019-04-06T08:10:51.618Z,40.50
2019-04-06T08:11:51.619Z,39.20
2019-04-06T08:12:51.768Z,38.90
2019-04-06T08:13:51.580Z,39.00
2019-04-06T08:14:51.590Z,38.50
2019-04-06T08:15:51.585Z,37.60
2019-04-06T08:16:51.550Z,39.60
2019-04-06T08:17:51.554Z,38.90
2019-04-06T08:18:51.527Z,38.90
2019-04-06T08:19:51.518Z,40.30
2019-04-06T08:20:51.716Z,38.10
2019-04-06T08:21:51.495Z,42.00
2019-04-06T08:22:51.478Z,37.30
2019-04-06T08:23:51.486Z,40.00
2019-04-06T08:24:51.457Z,41.40
2019-04-06T08:25:51.469Z,39.70
2019-04-06T08:26:51.433Z,38.50
2019-04-06T08:27:51.428Z,38.70
2019-04-06T08:29:00.284Z,38.20
2019-04-06T08:29:52.405Z,40.70
2019-04-06T08:30:51.396Z,40.40
2019-04-06T08:31:51.378Z,39.40
2019-04-06T08:32:51.368Z,39.60
2019-04-06T08:33:51.363Z,41.00
2019-04-06T08:34:51.406Z,39.40
2019-04-06T08:35:51.427Z,39.90
2019-04-06T08:36:51.337Z,37.70
2019-04-06T08:37:51.477Z,37.80
2019-04-06T08:38:51.311Z,41.50
2019-04-06T08:39:51.464Z,38.10
2019-04-06T08:40:51.288Z,37.70
2019-04-06T08:41:51.275Z,39.30
2019-04-06T08:42:51.263Z,36.50
2019-04-06T08:43:51.508Z,34.90
2019-04-06T08:44:51.244Z,35.90
2019-04-06T08:45:51.235Z,35.90
2019-04-06T08:46:51.232Z,38.90
2019-04-06T08:47:51.256Z,40.10
2019-04-06T08:48:51.226Z,37.20
2019-04-06T08:49:51.189Z,36.10
2019-04-06T08:50:51.415Z,38.40
2019-04-06T08:51:51.197Z,40.20
2019-04-06T08:52:51.180Z,33.20
2019-04-06T08:53:51.137Z,39.00
2019-04-06T08:54:51.127Z,38.00
2019-04-06T08:55:51.144Z,36.80
2019-04-06T08:56:51.105Z,40.40
2019-04-06T08:57:51.214Z,33.10
2019-04-06T08:58:51.207Z,36.90
2019-04-06T08:59:51.342Z,39.50
2019-04-06T09:00:51.096Z,39.70
2019-04-06T09:01:51.073Z,38.30
2019-04-06T09:02:51.050Z,39.10
2019-04-06T09:03:51.042Z,36.80
2019-04-06T09:04:51.028Z,34.80
2019-04-06T09:05:51.212Z,39.40
2019-04-06T09:06:51.006Z,39.80
2019-04-06T09:07:51.001Z,35.70
2019-04-06T09:08:51.110Z,33.70
2019-04-06T09:09:51.002Z,36.10
2019-04-06T09:10:50.953Z,37.30
2019-04-06T09:11:50.949Z,37.50
2019-04-06T09:12:50.939Z,37.20
2019-04-06T09:13:50.941Z,36.60
2019-04-06T09:14:51.042Z,36.60
2019-04-06T09:15:50.905Z,34.20
2019-04-06T09:16:51.105Z,37.60
2019-04-06T09:17:50.894Z,41.20
2019-04-06T09:18:50.875Z,39.80
2019-04-06T09:19:50.866Z,35.40
2019-04-06T09:20:51.038Z,38.30
2019-04-06T09:21:50.888Z,47.40
2019-04-06T09:22:50.867Z,36.60
2019-04-06T09:23:50.815Z,36.70
2019-04-06T09:24:50.804Z,35.10
2019-04-06T09:25:50.805Z,38.00
2019-04-06T09:26:50.783Z,38.20
2019-04-06T09:27:50.780Z,37.80
2019-04-06T09:28:50.778Z,40.50
2019-04-06T09:29:50.904Z,39.00
2019-04-06T09:30:50.746Z,37.00
2019-04-06T09:31:50.739Z,34.90
2019-04-06T09:32:50.717Z,38.40
2019-04-06T09:33:50.946Z,35.90
2019-04-06T09:34:50.763Z,34.80
2019-04-06T09:35:50.690Z,35.80
2019-04-06T09:36:50.771Z,33.10
2019-04-06T09:37:50.873Z,37.70
2019-04-06T09:38:50.829Z,36.00
2019-04-06T09:39:50.664Z,36.40
2019-04-06T09:40:50.946Z,34.60
2019-04-06T09:41:50.625Z,36.10
2019-04-06T09:42:50.605Z,33.20
2019-04-06T09:43:50.625Z,38.90
2019-04-06T09:44:50.582Z,33.50
2019-04-06T09:45:50.576Z,33.40
2019-04-06T09:46:50.663Z,34.10
2019-04-06T09:47:50.687Z,34.10
2019-04-06T09:48:50.568Z,36.50
2019-04-06T09:49:50.530Z,36.30
2019-04-06T09:50:50.715Z,37.50
2019-04-06T09:51:50.504Z,37.40
2019-04-06T09:52:50.493Z,35.80
2019-04-06T09:53:50.513Z,38.90
2019-04-06T09:54:50.694Z,36.10
2019-04-06T09:55:50.552Z,35.10
2019-04-06T09:56:50.496Z,38.30
2019-04-06T09:57:50.444Z,36.20
2019-04-06T09:58:50.432Z,35.40
2019-04-06T09:59:50.719Z,36.90
2019-04-06T10:00:50.428Z,35.90
2019-04-06T10:01:50.590Z,39.90
2019-04-06T10:02:50.400Z,34.70
2019-04-06T10:03:50.379Z,34.80
2019-04-06T10:04:50.398Z,34.80
2019-04-06T10:05:50.372Z,34.10
2019-04-06T10:06:50.345Z,34.90
2019-04-06T10:07:50.374Z,33.50
2019-04-06T10:08:50.335Z,35.10
2019-04-06T10:09:50.508Z,32.10
2019-04-06T10:10:50.587Z,32.70
2019-04-06T10:11:50.313Z,35.40
2019-04-06T10:12:50.303Z,35.70
2019-04-06T10:13:50.289Z,34.80
2019-04-06T10:14:50.266Z,35.60
2019-04-06T10:15:50.444Z,33.20
2019-04-06T10:16:50.445Z,32.80
2019-04-06T10:17:50.267Z,34.30
2019-04-06T10:18:50.223Z,31.30
2019-04-06T10:19:50.209Z,36.90
2019-04-06T10:20:50.220Z,33.80
2019-04-06T10:21:50.193Z,34.40
2019-04-06T10:22:50.202Z,36.90
2019-04-06T10:23:50.173Z,31.40
2019-04-06T10:24:50.152Z,30.10
2019-04-06T10:25:50.136Z,31.80
2019-04-06T10:26:50.219Z,31.60
2019-04-06T10:27:50.119Z,30.30
2019-04-06T10:28:50.130Z,33.90
2019-04-06T10:29:50.459Z,29.40
2019-04-06T10:30:50.086Z,32.40
2019-04-06T10:31:50.084Z,30.10
2019-04-06T10:32:50.059Z,30.40
2019-04-06T10:33:50.057Z,28.80
2019-04-06T10:34:50.041Z,30.10
2019-04-06T10:35:50.311Z,29.00
2019-04-06T10:36:50.053Z,27.10
2019-04-06T10:37:50.016Z,30.50
2019-04-06T10:38:49.989Z,32.70
2019-04-06T10:39:50.241Z,28.60
2019-04-06T10:40:49.969Z,30.40
2019-04-06T10:41:49.979Z,29.90
2019-04-06T10:42:49.950Z,28.30
2019-04-06T10:43:50.047Z,32.80
2019-04-06T10:44:50.100Z,29.90
2019-04-06T10:45:49.942Z,29.10
2019-04-06T10:46:49.942Z,28.10
2019-04-06T10:47:49.893Z,26.50
2019-04-06T10:48:49.890Z,31.70
2019-04-06T10:49:49.890Z,29.70
2019-04-06T10:50:49.857Z,30.20
2019-04-06T10:51:49.920Z,29.90
2019-04-06T10:52:50.161Z,34.90
2019-04-06T10:53:49.831Z,34.60
2019-04-06T10:54:49.857Z,44.80
2019-04-06T10:55:49.858Z,34.90
2019-04-06T10:56:49.813Z,32.50
2019-04-06T10:57:50.621Z,27.30
2019-04-06T10:58:49.807Z,31.20
2019-04-06T10:59:59.930Z,31.50
2019-04-06T11:00:50.755Z,31.40
2019-04-06T11:01:49.738Z,33.20
2019-04-06T11:02:49.736Z,29.50
2019-04-06T11:03:50.115Z,31.40
2019-04-06T11:04:49.708Z,32.80
2019-04-06T11:05:49.979Z,27.70
2019-04-06T11:06:49.866Z,32.60
2019-04-06T11:07:49.676Z,29.90
2019-04-06T11:08:49.764Z,35.00
2019-04-06T11:09:49.659Z,31.60
2019-04-06T11:10:49.677Z,27.50
2019-04-06T11:11:49.633Z,27.10
2019-04-06T11:12:49.622Z,27.60
2019-04-06T11:13:49.631Z,31.90
2019-04-06T11:14:49.618Z,28.40
2019-04-06T11:15:49.731Z,33.40
2019-04-06T11:16:49.578Z,28.30
2019-04-06T11:17:49.567Z,32.00
2019-04-06T11:18:49.561Z,27.50
2019-04-06T11:19:49.581Z,31.20
2019-04-06T11:20:49.536Z,30.70
2019-04-06T11:21:49.531Z,30.90
2019-04-06T11:22:49.515Z,32.30
2019-04-06T11:23:49.631Z,28.50
2019-04-06T11:24:49.529Z,30.80
2019-04-06T11:25:49.492Z,30.80
2019-04-06T11:26:49.472Z,31.40
2019-04-06T11:27:49.493Z,32.90
2019-04-06T11:28:49.634Z,29.10
2019-04-06T11:29:49.446Z,30.80
2019-04-06T11:30:49.442Z,37.10
2019-04-06T11:31:49.591Z,32.50
2019-04-06T11:32:49.433Z,29.70
2019-04-06T11:33:49.392Z,30.10
2019-04-06T11:34:49.385Z,29.20
2019-04-06T11:35:49.621Z,30.50
2019-04-06T11:36:49.359Z,30.10
2019-04-06T11:37:49.355Z,30.90
2019-04-06T11:38:49.370Z,29.60
2019-04-06T11:39:49.330Z,29.80
2019-04-06T11:40:49.555Z,28.60
2019-04-06T11:41:49.313Z,30.50
2019-04-06T11:42:49.311Z,29.90
2019-04-06T11:43:49.331Z,32.30
2019-04-06T11:44:49.290Z,27.00
2019-04-06T11:45:49.621Z,28.80
2019-04-06T11:46:49.267Z,31.30
2019-04-06T11:47:49.259Z,27.80
2019-04-06T11:48:49.567Z,28.50
2019-04-06T11:49:49.268Z,32.00
2019-04-06T11:50:49.377Z,30.20
2019-04-06T11:51:49.211Z,29.80
2019-04-06T11:52:49.194Z,29.50
2019-04-06T11:53:49.193Z,31.90
2019-04-06T11:54:49.186Z,30.30
2019-04-06T11:55:49.394Z,26.70
2019-04-06T11:56:49.146Z,32.60
2019-04-06T11:57:49.141Z,31.20
2019-04-06T11:58:49.127Z,29.10
2019-04-06T11:59:49.129Z,27.40
2019-04-06T12:00:49.441Z,29.30
2019-04-06T12:01:49.246Z,29.20
2019-04-06T12:02:49.434Z,30.60
2019-04-06T12:03:49.078Z,30.30
2019-04-06T12:04:49.069Z,31.10
2019-04-06T12:05:49.109Z,30.10
2019-04-06T12:06:49.276Z,28.00
2019-04-06T12:07:49.036Z,30.50
2019-04-06T12:08:49.389Z,26.70
2019-04-06T12:09:49.098Z,30.00
2019-04-06T12:10:49.073Z,29.70
2019-04-06T12:11:48.993Z,28.90
2019-04-06T12:12:49.244Z,29.30
2019-04-06T12:13:48.967Z,31.00
2019-04-06T12:14:48.957Z,30.90
2019-04-06T12:15:49.004Z,32.50
2019-04-06T12:16:48.966Z,32.40
2019-04-06T12:17:48.935Z,33.10
2019-04-06T12:18:48.917Z,29.90
2019-04-06T12:19:48.903Z,28.20
2019-04-06T12:20:48.899Z,27.10
2019-04-06T12:21:48.917Z,29.80
2019-04-06T12:22:51.068Z,29.20
2019-04-06T12:23:48.875Z,30.30
2019-04-06T12:24:49.107Z,27.40
2019-04-06T12:25:48.849Z,28.70
2019-04-06T12:26:48.824Z,31.10
2019-04-06T12:27:48.867Z,26.30
2019-04-06T12:28:48.806Z,26.80
2019-04-06T12:29:48.798Z,27.90
2019-04-06T12:30:48.783Z,29.90
2019-04-06T12:31:49.073Z,28.10
2019-04-06T12:32:49.102Z,27.40
2019-04-06T12:33:48.889Z,25.90
2019-04-06T12:34:48.747Z,28.70
2019-04-06T12:35:48.831Z,25.50
2019-04-06T12:36:49.088Z,25.60
2019-04-06T12:37:48.711Z,29.20
2019-04-06T12:38:48.700Z,26.70
2019-04-06T12:39:53.118Z,24.90
2019-04-06T12:40:49.688Z,27.50
2019-04-06T12:41:48.690Z,23.70
2019-04-06T12:42:48.660Z,24.80
2019-04-06T12:43:48.756Z,29.60
2019-04-06T12:44:48.664Z,25.90
2019-04-06T12:45:48.622Z,25.70
2019-04-06T12:46:48.647Z,25.00
2019-04-06T12:47:48.645Z,24.60
2019-04-06T12:48:48.590Z,25.10
2019-04-06T12:49:48.583Z,23.90
2019-04-06T12:50:48.574Z,27.90
2019-04-06T12:51:48.563Z,27.50
2019-04-06T12:52:48.543Z,26.90